Time;durP1;ratioP1;P1;durP2;ratioP2;P2;SDS_P1;SDS_P2;PMS_P1;PMS_P2;Temp;Humidity;BMP_temperature;BMP_pressure;BME280_temperature;BME280_humidity;BME280_pressure;Samples;Min_cycle;Max_cycle;Signal;HPM_P1;HPM_P2
2022/03/29 00:00:41;;;;;;;55.58;31.70;;;;;;;9.66;62.35;101849.66;5192732;28;20417;-48
2022/03/29 00:03:14;;;;;;;52.30;31.13;;;;;;;9.29;62.33;101805.97;5202367;28;20490;-43
2022/03/29 00:05:46;;;;;;;50.40;31.47;;;;;;;9.75;62.44;101857.81;5203046;28;20420;-44
2022/03/29 00:08:19;;;;;;;49.38;30.83;;;;;;;9.72;62.42;101852.78;5203671;28;20502;-43
2022/03/29 00:10:51;;;;;;;53.85;32.63;;;;;;;9.69;62.48;101851.22;5208182;28;20516;-49
2022/03/29 00:13:24;;;;;;;48.17;30.38;;;;;;;9.68;62.49;101849.53;5192024;28;20418;-46
2022/03/29 00:15:58;;;;;;;50.55;30.15;;;;;;;9.74;62.41;101843.78;5201462;28;20487;-44
2022/03/29 00:18:30;;;;;;;51.22;31.45;;;;;;;9.64;62.58;101833.13;5213597;28;20863;-50
2022/03/29 00:21:03;;;;;;;53.00;32.28;;;;;;;9.60;62.61;101842.22;5212953;28;20420;-49
2022/03/29 00:23:36;;;;;;;52.38;32.85;;;;;;;9.57;62.85;101838.97;5220899;28;20794;-46
2022/03/29 00:26:08;;;;;;;53.38;31.95;;;;;;;9.57;62.66;101838.97;5218936;28;20409;-46
2022/03/29 00:28:40;;;;;;;50.92;31.33;;;;;;;9.52;62.71;101823.50;5203236;28;20450;-54
2022/03/29 00:31:16;;;;;;;53.65;31.48;;;;;;;9.38;62.80;101800.88;5207234;28;20421;-47
2022/03/29 00:33:50;;;;;;;52.53;31.08;;;;;;;9.53;62.50;101819.91;5197768;28;20536;-45
2022/03/29 00:36:22;;;;;;;56.27;32.27;;;;;;;9.58;62.43;101828.31;5202483;28;20423;-44
2022/03/29 00:38:55;;;;;;;54.40;33.38;;;;;;;9.57;62.56;101816.09;5210506;28;20425;-45
2022/03/29 00:41:27;;;;;;;52.22;30.77;;;;;;;9.61;62.58;101812.25;5199165;28;20546;-50
2022/03/29 00:44:00;;;;;;;53.65;32.38;;;;;;;9.62;62.66;101813.91;5200568;28;20448;-48
2022/03/29 00:46:34;;;;;;;56.80;33.00;;;;;;;9.65;62.50;101813.69;5198679;28;22384;-50
2022/03/29 00:49:07;;;;;;;56.38;34.20;;;;;;;9.61;62.49;101806.97;5200264;28;20413;-51
2022/03/29 00:51:40;;;;;;;58.83;34.10;;;;;;;9.52;62.76;101796.31;5214376;28;20725;-48
2022/03/29 00:54:14;;;;;;;58.80;34.63;;;;;;;9.56;62.68;101790.66;5207143;28;20411;-48
2022/03/29 00:56:46;;;;;;;59.43;34.47;;;;;;;9.65;62.37;101800.50;5196020;28;20421;-53
2022/03/29 00:59:19;;;;;;;59.80;32.55;;;;;;;9.64;62.30;101796.19;5200208;28;20418;-45
2022/03/29 01:01:53;;;;;;;59.53;33.22;;;;;;;9.61;62.55;101796.44;5200676;28;21061;-49
2022/03/29 01:04:26;;;;;;;62.13;36.42;;;;;;;9.38;62.79;101766.59;5200802;28;20463;-45
2022/03/29 01:07:00;;;;;;;62.25;35.38;;;;;;;9.52;62.64;101778.69;5213883;28;20509;-43
2022/03/29 01:09:33;;;;;;;67.07;36.20;;;;;;;9.42;62.88;101780.38;5218867;28;20417;-50
2022/03/29 01:12:06;;;;;;;69.53;39.00;;;;;;;9.31;62.96;101775.06;5210885;28;20478;-47
2022/03/29 01:14:40;;;;;;;72.03;38.55;;;;;;;9.32;63.08;101785.53;5206331;28;20425;-44
2022/03/29 01:20:08;;;;;;;75.17;37.47;;;;;;;9.26;63.15;101770.19;5201966;28;20404;-45
2022/03/29 01:22:44;;;;;;;71.00;36.53;;;;;;;9.32;63.00;101774.13;5217690;28;20465;-45
2022/03/29 01:25:19;;;;;;;70.50;38.47;;;;;;;9.35;62.86;101771.25;5195370;28;20405;-45
2022/03/29 01:27:53;;;;;;;69.47;36.33;;;;;;;9.38;62.92;101763.09;5193751;28;20421;-45
2022/03/29 01:30:25;;;;;;;71.20;37.35;;;;;;;9.38;62.91;101761.31;5199876;28;20489;-44
2022/03/29 01:33:00;;;;;;;67.03;36.78;;;;;;;9.45;62.93;101770.41;5204904;28;20940;-48
2022/03/29 01:35:32;;;;;;;69.88;36.67;;;;;;;9.33;62.84;101754.72;5202527;28;20413;-50
2022/03/29 01:38:06;;;;;;;61.15;34.38;;;;;;;9.30;63.11;101770.78;5196569;28;20429;-45
2022/03/29 01:40:39;;;;;;;63.85;35.05;;;;;;;8.70;63.16;101691.88;5197196;28;20520;-45
2022/03/29 01:43:12;;;;;;;67.57;35.77;;;;;;;8.95;63.13;101738.28;5197057;28;20477;-48
2022/03/29 01:45:44;;;;;;;66.85;36.47;;;;;;;9.22;63.22;101751.09;5204103;28;20417;-46
2022/03/29 01:48:17;;;;;;;70.43;37.75;;;;;;;9.33;63.19;101760.81;5207271;28;20415;-56
2022/03/29 01:50:50;;;;;;;67.70;37.67;;;;;;;9.30;62.90;101747.88;5209255;28;20412;-45
2022/03/29 01:53:25;;;;;;;66.65;35.97;;;;;;;9.33;63.05;101752.91;5195073;28;20766;-45
2022/03/29 01:55:58;;;;;;;67.70;35.65;;;;;;;9.36;62.91;101739.50;5199863;28;20896;-46
2022/03/29 01:58:31;;;;;;;66.30;36.57;;;;;;;9.42;62.94;101743.47;5205571;28;20520;-43
2022/03/29 02:01:04;;;;;;;64.10;36.20;;;;;;;9.40;62.97;101743.56;5205357;28;20409;-45
2022/03/29 02:03:36;;;;;;;60.17;32.43;;;;;;;9.35;63.16;101742.25;5192950;28;20411;-50
2022/03/29 02:06:09;;;;;;;58.95;34.03;;;;;;;9.32;63.15;101734.56;5198594;28;20865;-47
2022/03/29 02:08:43;;;;;;;60.85;35.58;;;;;;;9.27;63.13;101739.38;5201371;28;20494;-46
2022/03/29 02:11:16;;;;;;;62.13;35.40;;;;;;;9.28;63.25;101725.22;5196673;28;20422;-45
2022/03/29 02:13:48;;;;;;;63.28;34.50;;;;;;;9.20;63.25;101721.41;5198987;28;20863;-46
2022/03/29 02:16:21;;;;;;;63.15;35.95;;;;;;;9.28;63.22;101722.59;5215171;28;20407;-47
2022/03/29 02:18:53;;;;;;;64.75;34.08;;;;;;;9.27;63.11;101721.75;5210517;28;20501;-47
2022/03/29 02:21:25;;;;;;;60.25;34.20;;;;;;;9.26;63.29;101724.50;5200602;28;20415;-49
2022/03/29 02:23:59;;;;;;;61.72;34.92;;;;;;;9.15;63.33;101718.28;5197193;28;20431;-44
2022/03/29 02:26:32;;;;;;;56.15;31.77;;;;;;;9.17;63.23;101719.00;5198447;28;20435;-49
2022/03/29 02:29:04;;;;;;;58.33;33.38;;;;;;;9.15;63.52;101715.63;5198540;28;20411;-48
2022/03/29 02:31:36;;;;;;;55.45;32.83;;;;;;;9.18;63.37;101710.13;5202492;28;20516;-46
2022/03/29 02:34:09;;;;;;;55.72;33.08;;;;;;;9.24;63.38;101707.03;5199933;28;20938;-45
2022/03/29 02:36:41;;;;;;;53.97;31.80;;;;;;;9.28;63.27;101699.72;5209308;28;20449;-51
2022/03/29 02:39:15;;;;;;;58.47;33.78;;;;;;;9.21;63.28;101699.34;5201928;28;20904;-45
2022/03/29 02:41:48;;;;;;;58.28;33.72;;;;;;;9.17;63.54;101692.66;5214767;28;20491;-47
2022/03/29 02:44:20;;;;;;;62.57;35.97;;;;;;;9.08;63.69;101688.09;5217300;28;20550;-45
2022/03/29 02:46:52;;;;;;;59.45;36.03;;;;;;;9.04;63.56;101685.81;5217265;28;20499;-47
2022/03/29 02:49:25;;;;;;;58.03;35.13;;;;;;;9.02;63.62;101678.03;5218063;28;20504;-45
2022/03/29 02:51:58;;;;;;;58.92;36.25;;;;;;;9.09;63.53;101676.59;5217346;28;20413;-44
2022/03/29 02:54:32;;;;;;;65.68;36.63;;;;;;;9.12;63.47;101678.97;5208258;28;20461;-43
2022/03/29 02:57:05;;;;;;;60.15;34.40;;;;;;;9.09;63.58;101688.94;5214715;28;20438;-46
2022/03/29 02:59:38;;;;;;;55.42;34.92;;;;;;;9.08;63.60;101677.56;5175910;28;20521;-46
2022/03/29 03:02:10;;;;;;;56.95;35.17;;;;;;;9.06;63.64;101681.25;5197502;28;20407;-45
2022/03/29 03:04:43;;;;;;;59.53;35.33;;;;;;;9.17;63.58;101671.56;5205737;28;20914;-47
2022/03/29 03:07:15;;;;;;;63.20;36.47;;;;;;;9.06;63.47;101637.31;5193337;28;20432;-47
2022/03/29 03:09:49;;;;;;;59.20;35.28;;;;;;;9.30;63.43;101665.34;5211129;28;20446;-45
2022/03/29 03:12:21;;;;;;;56.67;35.47;;;;;;;9.34;63.28;101666.75;5199641;28;20630;-46
2022/03/29 03:14:54;;;;;;;55.70;34.88;;;;;;;9.31;63.30;101667.00;5198951;28;20935;-47
2022/03/29 03:17:26;;;;;;;61.75;35.95;;;;;;;9.32;63.25;101669.53;5204259;28;20518;-43
2022/03/29 03:19:59;;;;;;;60.33;35.03;;;;;;;9.23;63.37;101660.53;5195643;28;20509;-44
2022/03/29 03:22:31;;;;;;;54.33;34.10;;;;;;;9.25;63.35;101668.31;5194280;28;20840;-45
2022/03/29 03:25:07;;;;;;;54.17;34.22;;;;;;;9.22;63.29;101664.13;5189487;28;20415;-48
2022/03/29 03:27:40;;;;;;;54.67;34.92;;;;;;;9.27;63.38;101670.84;5196829;28;20502;-43
2022/03/29 03:30:15;;;;;;;55.95;33.60;;;;;;;8.90;63.41;101621.03;5198814;28;20908;-56
2022/03/29 03:32:48;;;;;;;53.22;31.90;;;;;;;9.13;63.51;101667.47;5198831;28;20661;-49
2022/03/29 03:35:21;;;;;;;49.53;31.35;;;;;;;9.03;63.45;101655.97;5190972;28;20426;-44
2022/03/29 03:37:53;;;;;;;45.38;29.50;;;;;;;8.98;63.53;101655.50;5201945;28;20664;-43
2022/03/29 03:40:27;;;;;;;49.67;30.33;;;;;;;8.69;63.46;101611.19;5201942;28;20915;-44
2022/03/29 03:43:01;;;;;;;51.83;30.65;;;;;;;8.96;63.38;101657.44;5195728;28;20446;-51
2022/03/29 03:45:34;;;;;;;50.90;31.63;;;;;;;8.94;63.51;101644.38;5196958;28;20900;-53
2022/03/29 03:48:07;;;;;;;50.67;32.53;;;;;;;8.98;63.38;101647.59;5198121;28;20742;-44
2022/03/29 03:50:40;;;;;;;46.88;30.90;;;;;;;9.03;63.30;101647.25;5204357;28;20484;-49
2022/03/29 03:53:12;;;;;;;51.20;32.33;;;;;;;9.04;63.33;101643.66;5193970;28;20460;-41
2022/03/29 03:55:46;;;;;;;46.72;29.70;;;;;;;8.81;63.09;101619.09;5192717;28;20425;-58
2022/03/29 03:58:19;;;;;;;48.70;31.57;;;;;;;8.97;63.23;101638.03;5198067;28;20584;-45
2022/03/29 04:00:51;;;;;;;56.28;33.33;;;;;;;8.99;63.13;101633.47;5196220;28;20438;-44
2022/03/29 04:03:23;;;;;;;54.20;32.92;;;;;;;9.00;63.04;101621.97;5209774;28;20490;-48
2022/03/29 04:05:56;;;;;;;53.25;33.75;;;;;;;9.02;62.94;101625.34;5216929;28;20428;-46
2022/03/29 04:08:28;;;;;;;55.90;36.17;;;;;;;8.98;63.06;101635.28;5223367;28;20515;-44
2022/03/29 04:11:02;;;;;;;52.63;33.17;;;;;;;8.80;63.29;101620.91;5208651;28;20954;-45
2022/03/29 04:13:35;;;;;;;54.72;33.85;;;;;;;8.79;63.43;101624.47;5177586;28;20533;-45
2022/03/29 04:16:07;;;;;;;50.80;33.35;;;;;;;8.73;63.32;101620.53;5203051;28;20498;-47
2022/03/29 04:18:40;;;;;;;52.37;31.77;;;;;;;8.62;63.37;101612.63;5202587;28;20413;-44
2022/03/29 04:21:12;;;;;;;51.13;32.47;;;;;;;8.63;63.26;101619.56;5197826;28;20482;-42
2022/03/29 04:23:45;;;;;;;52.38;33.90;;;;;;;8.09;63.11;101526.25;5195753;28;20956;-49
2022/03/29 04:26:19;;;;;;;53.17;33.67;;;;;;;8.66;63.26;101615.84;5196122;28;20421;-45
2022/03/29 04:28:51;;;;;;;53.08;32.92;;;;;;;8.56;63.35;101605.19;5208617;28;20504;-44
2022/03/29 04:31:24;;;;;;;56.58;32.17;;;;;;;8.65;63.12;101612.38;5210785;28;20467;-44
2022/03/29 04:33:58;;;;;;;54.37;33.23;;;;;;;8.56;63.39;101604.38;5214058;28;20818;-44
2022/03/29 04:36:31;;;;;;;52.03;31.80;;;;;;;8.58;63.26;101616.47;5218034;28;20428;-44
2022/03/29 04:39:04;;;;;;;56.47;33.13;;;;;;;8.56;63.06;101605.19;5211789;28;20481;-47
2022/03/29 04:41:38;;;;;;;55.20;34.15;;;;;;;8.55;63.34;101606.16;5213790;28;20544;-44
2022/03/29 04:44:10;;;;;;;54.15;32.80;;;;;;;8.54;63.22;101601.84;5209544;28;20492;-44
2022/03/29 04:46:42;;;;;;;51.60;32.50;;;;;;;8.30;63.17;101560.63;5187673;28;20466;-45
2022/03/29 04:49:15;;;;;;;51.67;32.45;;;;;;;8.47;63.02;101587.47;5205122;28;20509;-43
2022/03/29 04:51:47;;;;;;;51.55;32.63;;;;;;;8.48;63.11;101583.88;5203375;28;20984;-45
2022/03/29 04:54:20;;;;;;;55.63;34.60;;;;;;;7.83;63.03;101478.28;5223734;28;20422;-47
2022/03/29 04:56:54;;;;;;;54.60;34.07;;;;;;;8.57;63.07;101592.88;5212652;28;20594;-44
2022/03/29 04:59:26;;;;;;;56.43;34.07;;;;;;;8.59;63.06;101604.97;5196264;28;20604;-48
2022/03/29 05:01:59;;;;;;;53.50;32.97;;;;;;;8.43;63.08;101570.25;5196431;28;20515;-44
2022/03/29 05:04:31;;;;;;;57.90;33.80;;;;;;;8.56;63.00;101589.41;5192469;28;20498;-44
2022/03/29 05:07:04;;;;;;;50.45;33.25;;;;;;;8.60;62.96;101598.72;5207221;28;20788;-51
2022/03/29 05:09:37;;;;;;;54.00;33.47;;;;;;;8.58;63.04;101592.75;5200469;28;20428;-54
2022/03/29 05:12:11;;;;;;;56.33;31.45;;;;;;;8.44;62.96;101574.53;5201335;28;20514;-45
2022/03/29 05:14:43;;;;;;;51.22;32.67;;;;;;;8.43;63.00;101580.78;5199736;28;20526;-47
2022/03/29 05:17:16;;;;;;;59.85;33.42;;;;;;;8.45;63.09;101594.63;5203060;28;20485;-46
2022/03/29 05:19:49;;;;;;;49.92;32.08;;;;;;;8.44;62.94;101588.53;5213681;28;20416;-51
2022/03/29 05:22:21;;;;;;;50.92;31.85;;;;;;;8.46;62.90;101580.53;5217990;28;20425;-44
2022/03/29 05:24:53;;;;;;;48.17;29.53;;;;;;;8.39;63.00;101585.41;5214243;28;20406;-44
2022/03/29 05:27:27;;;;;;;46.08;29.73;;;;;;;8.29;63.16;101579.97;5217752;28;20515;-44
2022/03/29 05:30:00;;;;;;;47.67;29.80;;;;;;;8.34;63.09;101595.44;5225709;28;20498;-45
2022/03/29 05:32:32;;;;;;;52.25;31.90;;;;;;;8.13;62.88;101536.53;5224554;28;21234;-44
2022/03/29 05:35:08;;;;;;;43.70;29.13;;;;;;;8.47;62.86;101582.22;5222372;28;20845;-46
2022/03/29 05:37:42;;;;;;;40.90;26.77;;;;;;;8.52;62.85;101578.28;5220292;28;20421;-45
2022/03/29 05:40:15;;;;;;;38.03;26.20;;;;;;;8.43;62.96;101575.50;5208951;28;20392;-46
2022/03/29 05:42:49;;;;;;;44.53;29.63;;;;;;;8.40;63.04;101581.00;5221441;28;20832;-44
2022/03/29 05:45:22;;;;;;;41.03;27.55;;;;;;;8.35;62.94;101577.84;5210529;28;20449;-45
2022/03/29 05:50:45;;;;;;;44.35;28.50;;;;;;;8.30;63.13;101580.84;5202422;28;20875;-47
2022/03/29 05:53:17;;;;;;;42.88;29.52;;;;;;;8.42;62.89;101579.91;5227729;28;20899;-44
2022/03/29 05:55:50;;;;;;;44.97;28.70;;;;;;;8.48;62.84;101584.72;5236680;28;20747;-45
2022/03/29 05:58:24;;;;;;;45.22;28.25;;;;;;;8.54;62.86;101578.97;5236262;28;20948;-44
2022/03/29 06:00:56;;;;;;;39.00;26.92;;;;;;;8.57;62.83;101583.16;5209020;28;20421;-45
2022/03/29 06:03:29;;;;;;;42.87;26.17;;;;;;;8.55;62.76;101590.38;5219094;28;20417;-46
2022/03/29 06:06:01;;;;;;;40.60;27.58;;;;;;;8.53;62.75;101584.38;5213814;28;20419;-44
2022/03/29 06:08:34;;;;;;;37.17;26.17;;;;;;;8.51;62.90;101591.53;5215408;28;20854;-45
2022/03/29 06:11:07;;;;;;;42.50;28.15;;;;;;;8.49;62.83;101615.38;5220084;28;20490;-50
2022/03/29 06:13:41;;;;;;;37.67;26.25;;;;;;;8.41;63.06;101596.69;5219179;28;20849;-52
2022/03/29 06:16:13;;;;;;;38.10;26.98;;;;;;;8.40;63.13;101596.81;5215805;28;20418;-47
2022/03/29 06:18:45;;;;;;;34.90;25.48;;;;;;;8.30;63.11;101568.53;5217859;28;20407;-47
2022/03/29 06:21:18;;;;;;;40.08;26.25;;;;;;;8.31;63.17;101585.97;5227596;28;20420;-49
2022/03/29 06:23:51;;;;;;;37.33;27.17;;;;;;;8.36;63.17;101585.66;5209996;28;20441;-46
2022/03/29 06:26:23;;;;;;;42.67;28.10;;;;;;;8.38;63.00;101580.25;5207279;28;20528;-49
2022/03/29 06:28:58;;;;;;;40.35;27.85;;;;;;;8.37;63.11;101575.94;5209490;28;20790;-48
2022/03/29 06:31:30;;;;;;;41.60;27.17;;;;;;;8.41;63.04;101574.78;5221984;28;20411;-45
2022/03/29 06:34:03;;;;;;;41.63;27.77;;;;;;;8.47;63.13;101592.75;5214772;28;20421;-44
2022/03/29 06:36:36;;;;;;;41.92;28.45;;;;;;;8.43;62.90;101570.25;5214216;28;20450;-45
2022/03/29 06:39:11;;;;;;;39.95;26.98;;;;;;;8.48;63.15;101573.34;5213861;28;20545;-51
2022/03/29 06:41:43;;;;;;;40.08;27.70;;;;;;;8.46;63.00;101581.38;5198748;28;20897;-50
2022/03/29 06:44:17;;;;;;;39.75;28.60;;;;;;;8.49;62.99;101575.03;5210392;28;20440;-49
2022/03/29 06:46:50;;;;;;;41.15;27.33;;;;;;;8.53;63.00;101587.00;5211092;28;20853;-44
2022/03/29 06:49:23;;;;;;;42.85;27.63;;;;;;;8.51;62.99;101588.91;5210196;28;20492;-45
2022/03/29 06:51:56;;;;;;;42.03;27.27;;;;;;;8.48;62.94;101575.97;5227962;28;20897;-48
2022/03/29 06:54:30;;;;;;;39.67;28.42;;;;;;;8.54;63.06;101583.41;5212978;28;20762;-48
2022/03/29 06:57:03;;;;;;;39.85;26.92;;;;;;;8.55;63.05;101590.38;5217906;28;20477;-45
2022/03/29 06:59:37;;;;;;;39.85;28.23;;;;;;;8.48;63.21;101591.78;5206882;28;20850;-46
2022/03/29 07:02:09;;;;;;;41.55;27.92;;;;;;;8.53;63.01;101592.25;5217289;28;20410;-51
2022/03/29 07:04:42;;;;;;;41.72;28.35;;;;;;;8.54;63.04;101586.03;5218202;28;20510;-45
2022/03/29 07:07:15;;;;;;;40.08;29.58;;;;;;;8.54;63.03;101580.78;5221682;28;20417;-47
2022/03/29 07:12:49;;;;;;;40.15;29.05;;;;;;;8.60;63.00;101566.31;5215116;28;20391;-47
2022/03/29 07:15:24;;;;;;;42.80;29.33;;;;;;;8.62;62.91;101575.75;5218627;28;20595;-46
2022/03/29 07:17:58;;;;;;;44.70;30.40;;;;;;;8.51;63.10;101558.16;5216692;28;20412;-49
2022/03/29 07:20:30;;;;;;;39.53;26.83;;;;;;;8.52;63.17;101572.19;5221031;28;20415;-49
2022/03/29 07:23:03;;;;;;;45.10;30.58;;;;;;;8.57;63.04;101577.91;5209856;28;20427;-47
2022/03/29 07:25:37;;;;;;;42.20;28.92;;;;;;;8.62;63.24;101580.19;5190560;28;20423;-49
2022/03/29 07:28:11;;;;;;;41.58;27.42;;;;;;;8.54;63.06;101557.91;5214006;28;20414;-50
2022/03/29 07:30:46;;;;;;;39.67;27.60;;;;;;;8.69;63.08;101570.84;5214358;28;20431;-55
2022/03/29 07:33:18;;;;;;;36.80;26.00;;;;;;;8.77;63.09;101571.94;5212908;28;20404;-49
2022/03/29 07:35:51;;;;;;;38.33;26.25;;;;;;;8.77;62.98;101569.31;5205409;28;20417;-47
2022/03/29 07:38:23;;;;;;;36.85;24.58;;;;;;;8.77;63.04;101563.19;5212199;28;20506;-44
2022/03/29 07:40:57;;;;;;;36.53;25.83;;;;;;;8.74;63.10;101566.06;5214319;28;20439;-47
2022/03/29 07:43:30;;;;;;;36.97;26.40;;;;;;;8.78;62.96;101573.59;5204886;28;20724;-47
2022/03/29 07:46:04;;;;;;;38.60;26.40;;;;;;;8.70;63.16;101562.84;5219649;28;20414;-46
2022/03/29 07:48:37;;;;;;;37.58;26.77;;;;;;;8.81;63.20;101569.06;5218248;28;20759;-45
2022/03/29 07:51:11;;;;;;;35.90;26.13;;;;;;;8.87;63.25;101579.13;5213437;28;20406;-52
2022/03/29 07:53:43;;;;;;;35.50;26.13;;;;;;;8.84;63.07;101560.91;5201548;28;20938;-54
2022/03/29 07:56:16;;;;;;;39.10;26.95;;;;;;;8.90;63.02;101560.44;5214817;28;20768;-45
2022/03/29 07:58:48;;;;;;;34.75;25.63;;;;;;;8.93;63.00;101558.41;5205622;28;20445;-45
2022/03/29 08:01:22;;;;;;;36.17;24.70;;;;;;;8.98;62.99;101565.91;5215750;28;20490;-46
2022/03/29 08:03:55;;;;;;;38.15;24.73;;;;;;;8.95;62.88;101566.16;5228231;28;20917;-45
2022/03/29 08:06:27;;;;;;;33.03;23.95;;;;;;;8.92;63.00;101566.41;5225339;28;20816;-46
2022/03/29 08:09:00;;;;;;;36.42;25.83;;;;;;;8.91;63.10;101564.72;5202859;28;20586;-47
2022/03/29 08:11:34;;;;;;;36.08;25.92;;;;;;;8.89;63.04;101566.69;5203191;28;20559;-51
2022/03/29 08:14:06;;;;;;;36.72;25.08;;;;;;;9.07;62.96;101567.81;5223549;28;20415;-46
2022/03/29 08:16:41;;;;;;;34.22;23.80;;;;;;;9.24;62.71;101567.31;5218778;28;20409;-45
2022/03/29 08:19:14;;;;;;;34.70;24.48;;;;;;;9.26;62.43;101563.72;5198034;28;20500;-46
2022/03/29 08:21:49;;;;;;;33.45;25.05;;;;;;;9.26;62.58;101563.72;5224177;28;20779;-46
2022/03/29 08:24:24;;;;;;;35.92;24.75;;;;;;;9.33;62.56;101557.00;5215050;28;20416;-45
2022/03/29 08:26:57;;;;;;;35.67;23.80;;;;;;;9.63;62.18;101559.78;5211632;28;20495;-52
2022/03/29 08:29:29;;;;;;;33.15;23.40;;;;;;;9.81;61.95;101557.41;5195119;28;20756;-49
2022/03/29 08:32:04;;;;;;;34.80;21.73;;;;;;;9.90;62.01;101561.94;5207254;28;20448;-48
2022/03/29 08:34:37;;;;;;;37.05;23.95;;;;;;;9.98;61.90;101556.03;5222328;28;20726;-46
2022/03/29 08:37:09;;;;;;;35.77;23.07;;;;;;;10.11;61.74;101546.09;5224730;28;20521;-48
2022/03/29 08:39:42;;;;;;;33.55;22.98;;;;;;;10.31;61.62;101540.97;5231880;28;20403;-47
2022/03/29 08:42:16;;;;;;;35.40;21.95;;;;;;;10.57;61.41;101559.88;5198887;28;20809;-49
2022/03/29 08:44:49;;;;;;;31.98;22.10;;;;;;;10.72;61.20;101555.06;5223104;28;20408;-46
2022/03/29 08:47:23;;;;;;;34.00;22.57;;;;;;;11.00;61.19;101564.91;5233274;28;20597;-51
2022/03/29 08:49:56;;;;;;;30.02;19.80;;;;;;;11.47;60.65;101559.84;5214080;28;20512;-50
2022/03/29 08:52:28;;;;;;;28.33;19.97;;;;;;;11.49;60.28;101559.72;5203135;28;20442;-50
2022/03/29 08:55:03;;;;;;;33.75;21.60;;;;;;;11.48;60.17;101563.31;5204563;28;20443;-50
2022/03/29 08:57:36;;;;;;;31.60;21.73;;;;;;;11.27;60.10;101542.25;5218474;28;20406;-48
2022/03/29 09:00:09;;;;;;;31.35;22.02;;;;;;;11.37;60.15;101566.09;5195172;28;20415;-47
2022/03/29 09:02:43;;;;;;;34.90;23.00;;;;;;;11.12;60.28;101559.47;5212508;28;20495;-49
2022/03/29 09:05:23;;;;;;;33.58;23.27;;;;;;;11.17;60.12;101559.94;5199349;28;20767;-47
2022/03/29 09:07:58;;;;;;;33.05;22.38;;;;;;;11.14;60.04;101562.84;5206072;28;20845;-50
2022/03/29 09:10:43;;;;;;;34.55;23.50;;;;;;;11.12;60.03;101570.06;5214774;28;20478;-49
2022/03/29 09:13:21;;;;;;;30.25;21.60;;;;;;;11.14;59.67;101557.56;5216408;28;20418;-49
2022/03/29 09:15:56;;;;;;;31.52;22.13;;;;;;;11.05;59.67;101551.25;5228141;28;20504;-51
2022/03/29 09:18:31;;;;;;;33.95;22.58;;;;;;;11.04;59.41;101547.78;5225533;28;20493;-46
2022/03/29 09:21:12;;;;;;;32.90;21.67;;;;;;;10.96;59.43;101531.78;5219059;28;20411;-48
2022/03/29 09:24:06;;;;;;;30.40;20.25;;;;;;;11.18;59.43;101541.28;5222038;28;20408;-51
2022/03/29 09:26:41;;;;;;;33.47;20.88;;;;;;;11.34;59.30;101551.34;5234287;28;20502;-47
2022/03/29 09:29:16;;;;;;;30.17;21.10;;;;;;;11.52;58.95;101557.63;5213377;28;20492;-45
2022/03/29 09:32:03;;;;;;;38.97;22.38;;;;;;;11.49;58.59;101555.25;5212788;28;20516;-46
2022/03/29 09:34:37;;;;;;;33.00;22.30;;;;;;;11.39;58.67;101554.38;5210699;28;20437;-48
2022/03/29 09:37:09;;;;;;;32.13;22.55;;;;;;;11.30;58.66;101539.34;5211212;28;20413;-50
2022/03/29 09:39:44;;;;;;;34.17;22.85;;;;;;;11.37;58.48;101545.78;5208783;28;20780;-46
2022/03/29 09:42:18;;;;;;;34.47;22.92;;;;;;;11.36;58.53;101549.38;5222777;28;20407;-49
2022/03/29 09:44:54;;;;;;;34.83;22.38;;;;;;;11.14;58.62;101534.59;5218045;28;20416;-46
2022/03/29 09:47:29;;;;;;;31.30;22.73;;;;;;;11.05;58.53;101519.53;5224138;28;20557;-46
2022/03/29 09:50:08;;;;;;;34.35;24.15;;;;;;;10.48;58.25;101476.97;5232282;28;20457;-47
2022/03/29 09:52:43;;;;;;;37.05;24.25;;;;;;;11.00;58.45;101535.81;5231443;28;20422;-48
2022/03/29 09:55:17;;;;;;;35.47;23.55;;;;;;;11.03;58.08;101517.06;5211128;28;20417;-50
2022/03/29 09:57:52;;;;;;;37.22;23.52;;;;;;;11.29;57.90;101537.69;5214709;28;20541;-56
2022/03/29 10:00:38;;;;;;;33.07;23.10;;;;;;;11.27;57.60;101513.16;5185190;28;20415;-48
2022/03/29 10:03:13;;;;;;;35.83;22.73;;;;;;;11.43;57.51;101534.66;5212301;28;20776;-50
2022/03/29 10:05:50;;;;;;;36.13;23.52;;;;;;;11.52;57.43;101523.22;5168391;28;20448;-56
2022/03/29 10:11:21;;;;;;;39.45;24.85;;;;;;;11.40;57.48;101528.81;5195519;28;20917;-51
2022/03/29 10:13:54;;;;;;;39.40;25.88;;;;;;;11.39;57.44;101509.44;5199047;28;20527;-52
2022/03/29 10:16:28;;;;;;;36.42;23.50;;;;;;;11.66;57.20;101507.91;5218559;28;20437;-52
2022/03/29 10:19:01;;;;;;;38.10;24.50;;;;;;;11.91;56.87;101511.81;5216006;28;20414;-52
2022/03/29 10:21:36;;;;;;;45.67;25.17;;;;;;;12.16;56.66;101502.41;5209580;28;20864;-50
2022/03/29 10:24:08;;;;;;;36.45;24.40;;;;;;;12.37;56.33;101503.03;5212299;28;20409;-47
2022/03/29 10:26:42;;;;;;;42.70;25.77;;;;;;;12.21;56.26;101476.34;5209411;28;20516;-53
2022/03/29 10:29:15;;;;;;;44.65;25.30;;;;;;;12.38;56.31;101507.34;5214070;28;20405;-55
2022/03/29 10:31:53;;;;;;;42.50;26.15;;;;;;;12.25;56.27;101498.06;5206698;28;20416;-45
2022/03/29 10:34:27;;;;;;;43.28;26.48;;;;;;;12.15;56.25;101509.53;5207502;28;20409;-51
2022/03/29 10:37:14;;;;;;;39.00;25.38;;;;;;;12.14;56.13;101501.72;5207662;28;20449;-51
2022/03/29 10:39:54;;;;;;;42.20;28.38;;;;;;;11.98;56.13;101497.88;5208076;28;20683;-52
2022/03/29 10:42:38;;;;;;;41.75;27.38;;;;;;;11.95;56.02;101498.16;5220621;28;20473;-54
2022/03/29 10:45:17;;;;;;;40.45;26.80;;;;;;;12.00;55.93;101490.59;5206623;28;20476;-51
2022/03/29 10:48:09;;;;;;;42.38;28.05;;;;;;;12.12;55.68;101488.63;5222246;28;20420;-53
2022/03/29 10:51:00;;;;;;;45.58;27.20;;;;;;;12.08;55.71;101494.34;5241848;28;20484;-47
2022/03/29 10:53:40;;;;;;;43.92;28.52;;;;;;;11.91;55.41;101454.41;5208968;28;20438;-46
2022/03/29 10:56:23;;;;;;;42.20;26.92;;;;;;;12.18;55.44;101492.53;5211217;28;20412;-46
2022/03/29 10:59:15;;;;;;;43.80;28.63;;;;;;;12.34;55.12;101476.84;5192827;28;20414;-49
2022/03/29 11:02:06;;;;;;;49.15;29.27;;;;;;;11.91;54.94;101390.88;5216978;28;20407;-51
2022/03/29 11:05:03;;;;;;;41.47;25.85;;;;;;;12.71;54.74;101494.53;5210099;28;20490;-47
2022/03/29 11:07:37;;;;;;;43.03;26.35;;;;;;;12.82;54.67;101483.72;5203628;28;20404;-47
2022/03/29 11:10:15;;;;;;;37.72;26.17;;;;;;;12.81;54.61;101484.69;5206090;28;20433;-47
2022/03/29 11:12:51;;;;;;;45.75;27.83;;;;;;;12.68;54.54;101474.44;5195772;28;20486;-51
2022/03/29 11:15:48;;;;;;;42.10;28.05;;;;;;;12.54;54.31;101471.44;5191534;28;20419;-49
2022/03/29 11:18:41;;;;;;;42.20;25.35;;;;;;;12.61;54.41;101483.16;5216206;28;20710;-46
2022/03/29 11:21:35;;;;;;;39.72;25.85;;;;;;;12.68;54.32;101478.91;5196658;28;20415;-52
2022/03/29 11:24:15;;;;;;;39.95;27.45;;;;;;;12.84;54.21;101473.78;5217327;28;20391;-49
2022/03/29 11:26:58;;;;;;;40.92;26.52;;;;;;;12.58;54.09;101409.25;5203876;28;21011;-47
2022/03/29 11:29:31;;;;;;;45.75;27.10;;;;;;;12.70;54.10;101439.84;5200191;28;20473;-46
2022/03/29 11:32:12;;;;;;;41.80;27.95;;;;;;;13.01;53.88;101471.34;5198344;28;20494;-50
2022/03/29 11:34:52;;;;;;;36.22;25.13;;;;;;;13.07;53.53;101452.16;5192217;28;20431;-48
2022/03/29 11:37:28;;;;;;;39.87;26.17;;;;;;;13.28;53.50;101458.00;5192446;28;20501;-47
2022/03/29 11:40:04;;;;;;;48.92;25.48;;;;;;;13.41;53.34;101451.47;5195974;28;20844;-47
2022/03/29 11:42:47;;;;;;;43.77;26.33;;;;;;;13.28;53.51;101452.69;5204795;28;20518;-48
2022/03/29 11:45:24;;;;;;;36.45;25.23;;;;;;;13.29;53.66;101443.78;5193735;28;25105;-54
2022/03/29 11:47:59;;;;;;;38.67;26.48;;;;;;;13.45;53.29;101444.91;5192360;28;20428;-50
2022/03/29 11:50:32;;;;;;;37.97;24.27;;;;;;;13.46;53.08;101457.19;5193954;28;20614;-47
2022/03/29 11:53:18;;;;;;;39.15;24.63;;;;;;;13.44;52.79;101437.91;5197610;28;20412;-50
2022/03/29 11:56:01;;;;;;;37.90;24.17;;;;;;;13.25;52.94;101434.44;5169559;28;20808;-48
2022/03/29 11:58:39;;;;;;;37.97;24.60;;;;;;;13.15;52.97;101431.00;5207176;28;20422;-46